sensor_id;sensor_type;location;lat;lon;timestamp;pressure;altitude;pressure_sealevel;temperature
70050;BMP180;57391;51.306;22.680;2024-02-16T00:01:50;100421.60;;;6.80
70050;BMP180;57391;51.306;22.680;2024-02-16T00:03:51;100419.40;;;6.80
70050;BMP180;57391;51.306;22.680;2024-02-16T00:05:53;100425.40;;;6.80
70050;BMP180;57391;51.306;22.680;2024-02-16T00:07:56;100424.20;;;6.80
70050;BMP180;57391;51.306;22.680;2024-02-16T00:09:58;100419.40;;;6.80
70050;BMP180;57391;51.306;22.680;2024-02-16T00:12:00;100417.20;;;6.80
70050;BMP180;57391;51.306;22.680;2024-02-16T00:14:02;100415.60;;;6.80
70050;BMP180;57391;51.306;22.680;2024-02-16T00:16:04;100415.40;;;6.80
70050;BMP180;57391;51.306;22.680;2024-02-16T00:18:07;100413.20;;;6.80
70050;BMP180;57391;51.306;22.680;2024-02-16T00:20:09;100416.80;;;6.80
70050;BMP180;57391;51.306;22.680;2024-02-16T00:22:13;100414.40;;;6.80
70050;BMP180;57391;51.306;22.680;2024-02-16T00:24:15;100409.60;;;6.78
70050;BMP180;57391;51.306;22.680;2024-02-16T00:26:17;100411.00;;;6.80
70050;BMP180;57391;51.306;22.680;2024-02-16T00:28:19;100410.40;;;6.80
70050;BMP180;57391;51.306;22.680;2024-02-16T00:30:22;100405.60;;;6.80
70050;BMP180;57391;51.306;22.680;2024-02-16T00:32:24;100405.40;;;6.80
70050;BMP180;57391;51.306;22.680;2024-02-16T00:34:31;100402.80;;;6.80
70050;BMP180;57391;51.306;22.680;2024-02-16T00:36:33;100401.00;;;6.70
70050;BMP180;57391;51.306;22.680;2024-02-16T00:38:35;100402.80;;;6.70
70050;BMP180;57391;51.306;22.680;2024-02-16T00:40:37;100397.80;;;6.70
70050;BMP180;57391;51.306;22.680;2024-02-16T00:42:44;100398.40;;;6.66
70050;BMP180;57391;51.306;22.680;2024-02-16T00:44:46;100400.80;;;6.60
70050;BMP180;57391;51.306;22.680;2024-02-16T00:46:48;100401.80;;;6.60
70050;BMP180;57391;51.306;22.680;2024-02-16T00:48:51;100409.00;;;6.60
70050;BMP180;57391;51.306;22.680;2024-02-16T00:50:53;100406.40;;;6.60
70050;BMP180;57391;51.306;22.680;2024-02-16T00:52:55;100407.40;;;6.60
70050;BMP180;57391;51.306;22.680;2024-02-16T00:54:57;100402.00;;;6.50
70050;BMP180;57391;51.306;22.680;2024-02-16T00:56:59;100403.80;;;6.50
70050;BMP180;57391;51.306;22.680;2024-02-16T00:59:04;100407.00;;;6.50
70050;BMP180;57391;51.306;22.680;2024-02-16T01:01:06;100406.80;;;6.50
70050;BMP180;57391;51.306;22.680;2024-02-16T01:03:11;100407.60;;;6.50
70050;BMP180;57391;51.306;22.680;2024-02-16T01:05:14;100408.80;;;6.50
70050;BMP180;57391;51.306;22.680;2024-02-16T01:07:19;100409.40;;;6.50
70050;BMP180;57391;51.306;22.680;2024-02-16T01:09:20;100405.40;;;6.50
70050;BMP180;57391;51.306;22.680;2024-02-16T01:11:22;100404.60;;;6.50
70050;BMP180;57391;51.306;22.680;2024-02-16T01:13:24;100399.80;;;6.50
70050;BMP180;57391;51.306;22.680;2024-02-16T01:15:25;100401.40;;;6.50
70050;BMP180;57391;51.306;22.680;2024-02-16T01:17:28;100401.00;;;6.50
70050;BMP180;57391;51.306;22.680;2024-02-16T01:19:30;100395.40;;;6.52
70050;BMP180;57391;51.306;22.680;2024-02-16T01:21:34;100391.40;;;6.60
70050;BMP180;57391;51.306;22.680;2024-02-16T01:23:35;100386.00;;;6.60
70050;BMP180;57391;51.306;22.680;2024-02-16T01:25:37;100384.40;;;6.60
70050;BMP180;57391;51.306;22.680;2024-02-16T01:27:39;100388.60;;;6.60
70050;BMP180;57391;51.306;22.680;2024-02-16T01:29:42;100388.80;;;6.60
70050;BMP180;57391;51.306;22.680;2024-02-16T01:31:44;100385.00;;;6.60
70050;BMP180;57391;51.306;22.680;2024-02-16T01:33:46;100389.60;;;6.60
70050;BMP180;57391;51.306;22.680;2024-02-16T01:35:48;100396.40;;;6.58
70050;BMP180;57391;51.306;22.680;2024-02-16T01:37:49;100393.80;;;6.50
70050;BMP180;57391;51.306;22.680;2024-02-16T01:39:51;100394.40;;;6.50
70050;BMP180;57391;51.306;22.680;2024-02-16T01:41:54;100395.60;;;6.40
70050;BMP180;57391;51.306;22.680;2024-02-16T01:43:55;100396.40;;;6.40
70050;BMP180;57391;51.306;22.680;2024-02-16T01:45:57;100392.60;;;6.40
70050;BMP180;57391;51.306;22.680;2024-02-16T01:48:01;100391.20;;;6.30
70050;BMP180;57391;51.306;22.680;2024-02-16T01:50:03;100389.20;;;6.30
70050;BMP180;57391;51.306;22.680;2024-02-16T01:52:06;100391.60;;;6.30
70050;BMP180;57391;51.306;22.680;2024-02-16T01:54:08;100388.40;;;6.30
70050;BMP180;57391;51.306;22.680;2024-02-16T01:56:10;100389.60;;;6.30
70050;BMP180;57391;51.306;22.680;2024-02-16T01:58:12;100385.40;;;6.30
70050;BMP180;57391;51.306;22.680;2024-02-16T02:00:15;100384.20;;;6.30
70050;BMP180;57391;51.306;22.680;2024-02-16T02:02:18;100385.60;;;6.30
70050;BMP180;57391;51.306;22.680;2024-02-16T02:04:20;100384.60;;;6.30
70050;BMP180;57391;51.306;22.680;2024-02-16T02:06:22;100384.00;;;6.30
70050;BMP180;57391;51.306;22.680;2024-02-16T02:08:25;100380.40;;;6.30
70050;BMP180;57391;51.306;22.680;2024-02-16T02:10:27;100385.40;;;6.40
70050;BMP180;57391;51.306;22.680;2024-02-16T02:12:29;100383.20;;;6.40
70050;BMP180;57391;51.306;22.680;2024-02-16T02:14:31;100386.00;;;6.40
70050;BMP180;57391;51.306;22.680;2024-02-16T02:16:33;100379.80;;;6.40
70050;BMP180;57391;51.306;22.680;2024-02-16T02:18:34;100383.00;;;6.40
70050;BMP180;57391;51.306;22.680;2024-02-16T02:20:36;100381.00;;;6.40
70050;BMP180;57391;51.306;22.680;2024-02-16T02:22:38;100378.00;;;6.38
70050;BMP180;57391;51.306;22.680;2024-02-16T02:24:40;100380.00;;;6.30
70050;BMP180;57391;51.306;22.680;2024-02-16T02:26:41;100376.20;;;6.30
70050;BMP180;57391;51.306;22.680;2024-02-16T02:28:43;100377.20;;;6.30
70050;BMP180;57391;51.306;22.680;2024-02-16T02:30:46;100374.20;;;6.22
70050;BMP180;57391;51.306;22.680;2024-02-16T02:32:50;100373.00;;;6.20
70050;BMP180;57391;51.306;22.680;2024-02-16T02:34:52;100371.60;;;6.14
70050;BMP180;57391;51.306;22.680;2024-02-16T02:36:54;100371.00;;;6.10
70050;BMP180;57391;51.306;22.680;2024-02-16T02:38:56;100378.00;;;6.08
70050;BMP180;57391;51.306;22.680;2024-02-16T02:40:57;100372.00;;;6.00
70050;BMP180;57391;51.306;22.680;2024-02-16T02:42:59;100373.60;;;6.00
70050;BMP180;57391;51.306;22.680;2024-02-16T02:45:02;100369.40;;;5.90
70050;BMP180;57391;51.306;22.680;2024-02-16T02:47:04;100367.00;;;5.90
70050;BMP180;57391;51.306;22.680;2024-02-16T02:49:06;100367.20;;;5.80
70050;BMP180;57391;51.306;22.680;2024-02-16T02:51:08;100372.00;;;5.80
70050;BMP180;57391;51.306;22.680;2024-02-16T02:53:11;100375.00;;;5.70
70050;BMP180;57391;51.306;22.680;2024-02-16T02:55:13;100373.80;;;5.70
70050;BMP180;57391;51.306;22.680;2024-02-16T02:57:14;100376.60;;;5.70
70050;BMP180;57391;51.306;22.680;2024-02-16T02:59:16;100375.40;;;5.60
70050;BMP180;57391;51.306;22.680;2024-02-16T03:01:18;100372.40;;;5.60
70050;BMP180;57391;51.306;22.680;2024-02-16T03:03:22;100372.60;;;5.60
70050;BMP180;57391;51.306;22.680;2024-02-16T03:05:24;100370.80;;;5.60
70050;BMP180;57391;51.306;22.680;2024-02-16T03:07:25;100364.80;;;5.54
70050;BMP180;57391;51.306;22.680;2024-02-16T03:09:28;100365.60;;;5.50
70050;BMP180;57391;51.306;22.680;2024-02-16T03:11:29;100369.80;;;5.50
70050;BMP180;57391;51.306;22.680;2024-02-16T03:13:31;100371.40;;;5.50
70050;BMP180;57391;51.306;22.680;2024-02-16T03:15:33;100372.80;;;5.40
70050;BMP180;57391;51.306;22.680;2024-02-16T03:17:37;100373.60;;;5.40
70050;BMP180;57391;51.306;22.680;2024-02-16T03:19:38;100376.00;;;5.40
70050;BMP180;57391;51.306;22.680;2024-02-16T03:21:40;100376.00;;;5.32
70050;BMP180;57391;51.306;22.680;2024-02-16T03:23:42;100375.40;;;5.30
70050;BMP180;57391;51.306;22.680;2024-02-16T03:25:44;100375.80;;;5.30
70050;BMP180;57391;51.306;22.680;2024-02-16T03:27:46;100381.00;;;5.22
70050;BMP180;57391;51.306;22.680;2024-02-16T03:29:48;100378.00;;;5.18
70050;BMP180;57391;51.306;22.680;2024-02-16T03:31:50;100379.60;;;5.10
70050;BMP180;57391;51.306;22.680;2024-02-16T03:33:52;100373.20;;;5.00
70050;BMP180;57391;51.306;22.680;2024-02-16T03:35:54;100376.40;;;4.90
70050;BMP180;57391;51.306;22.680;2024-02-16T03:37:56;100377.80;;;4.80
70050;BMP180;57391;51.306;22.680;2024-02-16T03:39:58;100384.20;;;4.78
70050;BMP180;57391;51.306;22.680;2024-02-16T03:41:59;100381.20;;;4.66
70050;BMP180;57391;51.306;22.680;2024-02-16T03:44:01;100382.20;;;4.54
70050;BMP180;57391;51.306;22.680;2024-02-16T03:46:03;100385.20;;;4.40
70050;BMP180;57391;51.306;22.680;2024-02-16T03:48:05;100383.20;;;4.32
70050;BMP180;57391;51.306;22.680;2024-02-16T03:50:08;100382.20;;;4.30
70050;BMP180;57391;51.306;22.680;2024-02-16T03:52:09;100380.00;;;4.14
70050;BMP180;57391;51.306;22.680;2024-02-16T03:54:11;100383.60;;;4.02
70050;BMP180;57391;51.306;22.680;2024-02-16T03:56:19;100377.20;;;3.92
70050;BMP180;57391;51.306;22.680;2024-02-16T03:58:22;100381.20;;;3.80
70050;BMP180;57391;51.306;22.680;2024-02-16T04:00:24;100376.60;;;3.70
70050;BMP180;57391;51.306;22.680;2024-02-16T04:02:25;100380.80;;;3.50
70050;BMP180;57391;51.306;22.680;2024-02-16T04:04:27;100379.40;;;3.40
70050;BMP180;57391;51.306;22.680;2024-02-16T04:06:29;100378.80;;;3.30
70050;BMP180;57391;51.306;22.680;2024-02-16T04:08:30;100377.80;;;3.20
70050;BMP180;57391;51.306;22.680;2024-02-16T04:10:34;100379.60;;;3.10
70050;BMP180;57391;51.306;22.680;2024-02-16T04:12:35;100377.00;;;3.06
70050;BMP180;57391;51.306;22.680;2024-02-16T04:14:37;100377.80;;;3.00
70050;BMP180;57391;51.306;22.680;2024-02-16T04:16:43;100375.40;;;2.90
70050;BMP180;57391;51.306;22.680;2024-02-16T04:18:45;100373.40;;;2.80
70050;BMP180;57391;51.306;22.680;2024-02-16T04:20:46;100370.60;;;2.76
70050;BMP180;57391;51.306;22.680;2024-02-16T04:22:48;100375.80;;;2.70
70050;BMP180;57391;51.306;22.680;2024-02-16T04:24:50;100372.00;;;2.60
70050;BMP180;57391;51.306;22.680;2024-02-16T04:26:51;100375.80;;;2.52
70050;BMP180;57391;51.306;22.680;2024-02-16T04:28:53;100372.60;;;2.50
70050;BMP180;57391;51.306;22.680;2024-02-16T04:30:55;100373.00;;;2.40
70050;BMP180;57391;51.306;22.680;2024-02-16T04:32:57;100377.80;;;2.40
70050;BMP180;57391;51.306;22.680;2024-02-16T04:34:58;100375.60;;;2.36
70050;BMP180;57391;51.306;22.680;2024-02-16T04:37:00;100371.40;;;2.30
70050;BMP180;57391;51.306;22.680;2024-02-16T04:39:02;100370.40;;;2.30
70050;BMP180;57391;51.306;22.680;2024-02-16T04:41:05;100370.00;;;2.30
70050;BMP180;57391;51.306;22.680;2024-02-16T04:43:07;100368.60;;;2.30
70050;BMP180;57391;51.306;22.680;2024-02-16T04:45:13;100369.20;;;2.28
70050;BMP180;57391;51.306;22.680;2024-02-16T04:47:15;100368.80;;;2.20
70050;BMP180;57391;51.306;22.680;2024-02-16T04:49:17;100367.60;;;2.20
70050;BMP180;57391;51.306;22.680;2024-02-16T04:51:19;100369.20;;;2.14
70050;BMP180;57391;51.306;22.680;2024-02-16T04:53:21;100375.20;;;2.10
70050;BMP180;57391;51.306;22.680;2024-02-16T04:55:22;100372.80;;;2.08
70050;BMP180;57391;51.306;22.680;2024-02-16T04:57:24;100369.60;;;2.00
70050;BMP180;57391;51.306;22.680;2024-02-16T04:59:26;100365.80;;;2.00
70050;BMP180;57391;51.306;22.680;2024-02-16T05:01:29;100368.60;;;2.00
70050;BMP180;57391;51.306;22.680;2024-02-16T05:03:31;100368.60;;;1.94
70050;BMP180;57391;51.306;22.680;2024-02-16T05:05:33;100369.60;;;1.90
70050;BMP180;57391;51.306;22.680;2024-02-16T05:07:34;100370.80;;;1.90
70050;BMP180;57391;51.306;22.680;2024-02-16T05:09:39;100374.40;;;1.82
70050;BMP180;57391;51.306;22.680;2024-02-16T05:11:41;100372.60;;;1.80
70050;BMP180;57391;51.306;22.680;2024-02-16T05:13:42;100374.60;;;1.78
70050;BMP180;57391;51.306;22.680;2024-02-16T05:15:45;100372.20;;;1.70
70050;BMP180;57391;51.306;22.680;2024-02-16T05:17:50;100372.60;;;1.70
70050;BMP180;57391;51.306;22.680;2024-02-16T05:19:52;100377.40;;;1.70
70050;BMP180;57391;51.306;22.680;2024-02-16T05:21:55;100381.40;;;1.62
70050;BMP180;57391;51.306;22.680;2024-02-16T05:23:57;100382.40;;;1.60
70050;BMP180;57391;51.306;22.680;2024-02-16T05:25:59;100379.60;;;1.60
70050;BMP180;57391;51.306;22.680;2024-02-16T05:28:00;100380.80;;;1.60
70050;BMP180;57391;51.306;22.680;2024-02-16T05:30:04;100381.60;;;1.60
70050;BMP180;57391;51.306;22.680;2024-02-16T05:32:09;100382.20;;;1.60
70050;BMP180;57391;51.306;22.680;2024-02-16T05:34:11;100380.20;;;1.60
70050;BMP180;57391;51.306;22.680;2024-02-16T05:36:22;100385.60;;;1.58
70050;BMP180;57391;51.306;22.680;2024-02-16T05:38:26;100386.80;;;1.52
70050;BMP180;57391;51.306;22.680;2024-02-16T05:40:36;100388.80;;;1.50
70050;BMP180;57391;51.306;22.680;2024-02-16T05:42:55;100384.40;;;1.50
70050;BMP180;57391;51.306;22.680;2024-02-16T05:45:01;100391.40;;;1.50
70050;BMP180;57391;51.306;22.680;2024-02-16T05:47:03;100387.60;;;1.50
70050;BMP180;57391;51.306;22.680;2024-02-16T05:49:04;100390.60;;;1.50
70050;BMP180;57391;51.306;22.680;2024-02-16T05:51:07;100389.40;;;1.50
70050;BMP180;57391;51.306;22.680;2024-02-16T05:53:08;100386.20;;;1.52
70050;BMP180;57391;51.306;22.680;2024-02-16T05:55:12;100384.80;;;1.50
70050;BMP180;57391;51.306;22.680;2024-02-16T05:57:14;100389.20;;;1.50
70050;BMP180;57391;51.306;22.680;2024-02-16T05:59:16;100386.40;;;1.50
70050;BMP180;57391;51.306;22.680;2024-02-16T06:01:18;100388.60;;;1.56
70050;BMP180;57391;51.306;22.680;2024-02-16T06:03:20;100386.80;;;1.60
70050;BMP180;57391;51.306;22.680;2024-02-16T06:05:22;100388.60;;;1.60
70050;BMP180;57391;51.306;22.680;2024-02-16T06:07:24;100388.00;;;1.66
70050;BMP180;57391;51.306;22.680;2024-02-16T06:09:26;100391.80;;;1.70
70050;BMP180;57391;51.306;22.680;2024-02-16T06:11:28;100389.60;;;1.80
70050;BMP180;57391;51.306;22.680;2024-02-16T06:13:29;100391.80;;;2.04
70050;BMP180;57391;51.306;22.680;2024-02-16T06:15:31;100394.40;;;2.20
70050;BMP180;57391;51.306;22.680;2024-02-16T06:17:33;100398.00;;;2.40
70050;BMP180;57391;51.306;22.680;2024-02-16T06:19:35;100397.20;;;2.60
70050;BMP180;57391;51.306;22.680;2024-02-16T06:21:37;100397.40;;;2.80
70050;BMP180;57391;51.306;22.680;2024-02-16T06:23:39;100402.80;;;2.90
70050;BMP180;57391;51.306;22.680;2024-02-16T06:25:41;100397.40;;;3.06
70050;BMP180;57391;51.306;22.680;2024-02-16T06:27:43;100405.60;;;3.38
70050;BMP180;57391;51.306;22.680;2024-02-16T06:29:45;100402.20;;;3.62
70050;BMP180;57391;51.306;22.680;2024-02-16T06:31:47;100403.20;;;3.80
70050;BMP180;57391;51.306;22.680;2024-02-16T06:33:49;100400.60;;;3.88
70050;BMP180;57391;51.306;22.680;2024-02-16T06:35:51;100401.60;;;4.00
70050;BMP180;57391;51.306;22.680;2024-02-16T06:37:52;100398.60;;;4.10
70050;BMP180;57391;51.306;22.680;2024-02-16T06:39:55;100405.00;;;4.10
70050;BMP180;57391;51.306;22.680;2024-02-16T06:41:57;100407.60;;;4.00
70050;BMP180;57391;51.306;22.680;2024-02-16T06:43:58;100409.00;;;4.00
70050;BMP180;57391;51.306;22.680;2024-02-16T06:46:00;100404.40;;;3.92
70050;BMP180;57391;51.306;22.680;2024-02-16T06:48:02;100403.00;;;3.90
70050;BMP180;57391;51.306;22.680;2024-02-16T06:50:05;100400.40;;;3.94
70050;BMP180;57391;51.306;22.680;2024-02-16T06:52:07;100405.80;;;4.08
70050;BMP180;57391;51.306;22.680;2024-02-16T06:54:11;100400.80;;;4.40
70050;BMP180;57391;51.306;22.680;2024-02-16T06:56:13;100398.20;;;4.82
70050;BMP180;57391;51.306;22.680;2024-02-16T06:58:14;100399.60;;;5.20
70050;BMP180;57391;51.306;22.680;2024-02-16T07:00:17;100402.40;;;5.68
70050;BMP180;57391;51.306;22.680;2024-02-16T07:02:21;100403.40;;;6.10
70050;BMP180;57391;51.306;22.680;2024-02-16T07:04:23;100406.80;;;6.48
70050;BMP180;57391;51.306;22.680;2024-02-16T07:06:25;100404.20;;;6.72
70050;BMP180;57391;51.306;22.680;2024-02-16T07:08:27;100406.60;;;7.04
70050;BMP180;57391;51.306;22.680;2024-02-16T07:10:29;100413.00;;;7.42
70050;BMP180;57391;51.306;22.680;2024-02-16T07:12:31;100411.20;;;7.70
70050;BMP180;57391;51.306;22.680;2024-02-16T07:14:35;100415.60;;;8.00
70050;BMP180;57391;51.306;22.680;2024-02-16T07:16:37;100423.20;;;8.28
70050;BMP180;57391;51.306;22.680;2024-02-16T07:18:38;100421.60;;;8.60
70050;BMP180;57391;51.306;22.680;2024-02-16T07:20:40;100429.40;;;8.90
70050;BMP180;57391;51.306;22.680;2024-02-16T07:22:42;100429.00;;;9.20
70050;BMP180;57391;51.306;22.680;2024-02-16T07:24:44;100430.80;;;9.40
70050;BMP180;57391;51.306;22.680;2024-02-16T07:26:45;100439.20;;;9.40
70050;BMP180;57391;51.306;22.680;2024-02-16T07:28:47;100436.80;;;9.30
70050;BMP180;57391;51.306;22.680;2024-02-16T07:30:50;100440.80;;;9.38
70050;BMP180;57391;51.306;22.680;2024-02-16T07:32:52;100437.20;;;9.50
70050;BMP180;57391;51.306;22.680;2024-02-16T07:34:54;100439.00;;;9.50
70050;BMP180;57391;51.306;22.680;2024-02-16T07:36:56;100436.20;;;9.60
70050;BMP180;57391;51.306;22.680;2024-02-16T07:38:58;100440.60;;;9.60
70050;BMP180;57391;51.306;22.680;2024-02-16T07:41:00;100439.60;;;9.68
70050;BMP180;57391;51.306;22.680;2024-02-16T07:43:03;100447.00;;;9.80
70050;BMP180;57391;51.306;22.680;2024-02-16T07:45:06;100447.00;;;10.00
70050;BMP180;57391;51.306;22.680;2024-02-16T07:47:08;100453.60;;;10.16
70050;BMP180;57391;51.306;22.680;2024-02-16T07:49:10;100446.20;;;10.10
70050;BMP180;57391;51.306;22.680;2024-02-16T07:51:12;100449.80;;;10.10
70050;BMP180;57391;51.306;22.680;2024-02-16T07:53:14;100446.00;;;10.10
70050;BMP180;57391;51.306;22.680;2024-02-16T07:55:16;100446.00;;;10.10
70050;BMP180;57391;51.306;22.680;2024-02-16T07:57:22;100448.00;;;10.20
70050;BMP180;57391;51.306;22.680;2024-02-16T07:59:23;100451.60;;;10.20
70050;BMP180;57391;51.306;22.680;2024-02-16T08:01:26;100450.60;;;10.10
70050;BMP180;57391;51.306;22.680;2024-02-16T08:03:28;100453.40;;;10.10
70050;BMP180;57391;51.306;22.680;2024-02-16T08:05:30;100453.60;;;10.10
70050;BMP180;57391;51.306;22.680;2024-02-16T08:07:32;100450.00;;;10.10
70050;BMP180;57391;51.306;22.680;2024-02-16T08:09:34;100452.20;;;10.20
70050;BMP180;57391;51.306;22.680;2024-02-16T08:11:35;100453.80;;;10.30
70050;BMP180;57391;51.306;22.680;2024-02-16T08:13:37;100445.00;;;10.30
70050;BMP180;57391;51.306;22.680;2024-02-16T08:15:39;100449.40;;;10.40
70050;BMP180;57391;51.306;22.680;2024-02-16T08:17:40;100450.80;;;10.46
70050;BMP180;57391;51.306;22.680;2024-02-16T08:19:43;100449.80;;;10.50
70050;BMP180;57391;51.306;22.680;2024-02-16T08:21:44;100454.60;;;10.50
70050;BMP180;57391;51.306;22.680;2024-02-16T08:23:46;100455.00;;;10.40
70050;BMP180;57391;51.306;22.680;2024-02-16T08:25:48;100452.40;;;10.46
70050;BMP180;57391;51.306;22.680;2024-02-16T08:27:50;100455.00;;;10.50
70050;BMP180;57391;51.306;22.680;2024-02-16T08:29:52;100455.20;;;10.30
70050;BMP180;57391;51.306;22.680;2024-02-16T08:31:56;100453.20;;;10.30
70050;BMP180;57391;51.306;22.680;2024-02-16T08:33:58;100445.40;;;10.30
70050;BMP180;57391;51.306;22.680;2024-02-16T08:36:00;100446.40;;;10.20
70050;BMP180;57391;51.306;22.680;2024-02-16T08:38:02;100448.40;;;10.20
70050;BMP180;57391;51.306;22.680;2024-02-16T08:40:04;100447.80;;;10.20
70050;BMP180;57391;51.306;22.680;2024-02-16T08:42:07;100448.20;;;10.16
70050;BMP180;57391;51.306;22.680;2024-02-16T08:44:15;100450.00;;;10.10
70050;BMP180;57391;51.306;22.680;2024-02-16T08:46:17;100448.00;;;10.10
70050;BMP180;57391;51.306;22.680;2024-02-16T08:48:18;100449.00;;;10.28
70050;BMP180;57391;51.306;22.680;2024-02-16T08:50:20;100451.80;;;10.30
70050;BMP180;57391;51.306;22.680;2024-02-16T08:52:22;100448.80;;;10.34
70050;BMP180;57391;51.306;22.680;2024-02-16T08:54:24;100450.20;;;10.50
70050;BMP180;57391;51.306;22.680;2024-02-16T08:56:28;100454.00;;;10.60
70050;BMP180;57391;51.306;22.680;2024-02-16T08:58:30;100453.40;;;10.62
70050;BMP180;57391;51.306;22.680;2024-02-16T09:00:31;100449.40;;;10.68
70050;BMP180;57391;51.306;22.680;2024-02-16T09:02:33;100448.20;;;10.70
70050;BMP180;57391;51.306;22.680;2024-02-16T09:04:35;100445.20;;;10.70
70050;BMP180;57391;51.306;22.680;2024-02-16T09:06:38;100442.20;;;10.70
70050;BMP180;57391;51.306;22.680;2024-02-16T09:08:40;100445.20;;;10.70
70050;BMP180;57391;51.306;22.680;2024-02-16T09:10:42;100444.80;;;10.80
70050;BMP180;57391;51.306;22.680;2024-02-16T09:12:44;100452.00;;;10.98
70050;BMP180;57391;51.306;22.680;2024-02-16T09:14:46;100443.20;;;11.00
70050;BMP180;57391;51.306;22.680;2024-02-16T09:16:50;100443.40;;;11.00
70050;BMP180;57391;51.306;22.680;2024-02-16T09:18:55;100443.00;;;11.10
70050;BMP180;57391;51.306;22.680;2024-02-16T09:20:58;100446.80;;;11.04
70050;BMP180;57391;51.306;22.680;2024-02-16T09:22:59;100444.80;;;10.90
70050;BMP180;57391;51.306;22.680;2024-02-16T09:25:02;100443.20;;;10.82
70050;BMP180;57391;51.306;22.680;2024-02-16T09:27:04;100445.40;;;10.80
70050;BMP180;57391;51.306;22.680;2024-02-16T09:29:06;100452.60;;;10.70
70050;BMP180;57391;51.306;22.680;2024-02-16T09:31:08;100452.80;;;10.66
70050;BMP180;57391;51.306;22.680;2024-02-16T09:33:10;100447.40;;;10.50
70050;BMP180;57391;51.306;22.680;2024-02-16T09:35:12;100447.20;;;10.58
70050;BMP180;57391;51.306;22.680;2024-02-16T09:37:13;100452.60;;;10.58
70050;BMP180;57391;51.306;22.680;2024-02-16T09:39:15;100455.40;;;10.50
70050;BMP180;57391;51.306;22.680;2024-02-16T09:41:17;100455.40;;;10.40
70050;BMP180;57391;51.306;22.680;2024-02-16T09:43:30;100452.60;;;10.30
70050;BMP180;57391;51.306;22.680;2024-02-16T09:45:33;100456.00;;;10.30
70050;BMP180;57391;51.306;22.680;2024-02-16T09:47:36;100452.00;;;10.20
70050;BMP180;57391;51.306;22.680;2024-02-16T09:49:38;100451.40;;;10.16
70050;BMP180;57391;51.306;22.680;2024-02-16T09:51:40;100454.40;;;10.20
70050;BMP180;57391;51.306;22.680;2024-02-16T09:53:42;100456.80;;;10.20
70050;BMP180;57391;51.306;22.680;2024-02-16T09:55:45;100453.80;;;10.24
70050;BMP180;57391;51.306;22.680;2024-02-16T09:57:46;100456.00;;;10.30
70050;BMP180;57391;51.306;22.680;2024-02-16T09:59:48;100451.40;;;10.30
70050;BMP180;57391;51.306;22.680;2024-02-16T10:02:00;100455.40;;;10.40
70050;BMP180;57391;51.306;22.680;2024-02-16T10:04:06;100455.60;;;10.50
70050;BMP180;57391;51.306;22.680;2024-02-16T10:06:11;100451.40;;;10.60
70050;BMP180;57391;51.306;22.680;2024-02-16T10:08:14;100452.80;;;10.70
70050;BMP180;57391;51.306;22.680;2024-02-16T10:10:28;100452.20;;;10.70
70050;BMP180;57391;51.306;22.680;2024-02-16T10:12:34;100451.40;;;10.72
70050;BMP180;57391;51.306;22.680;2024-02-16T10:14:36;100457.00;;;10.74
70050;BMP180;57391;51.306;22.680;2024-02-16T10:16:39;100454.80;;;10.70
70050;BMP180;57391;51.306;22.680;2024-02-16T10:18:41;100461.40;;;10.70
70050;BMP180;57391;51.306;22.680;2024-02-16T10:20:44;100451.40;;;10.72
70050;BMP180;57391;51.306;22.680;2024-02-16T10:22:46;100447.80;;;10.80
70050;BMP180;57391;51.306;22.680;2024-02-16T10:24:48;100450.20;;;10.90
70050;BMP180;57391;51.306;22.680;2024-02-16T10:26:54;100448.60;;;10.90
70050;BMP180;57391;51.306;22.680;2024-02-16T10:28:57;100447.80;;;10.90
70050;BMP180;57391;51.306;22.680;2024-02-16T10:31:00;100440.60;;;11.00
70050;BMP180;57391;51.306;22.680;2024-02-16T10:33:06;100440.60;;;11.00
70050;BMP180;57391;51.306;22.680;2024-02-16T10:35:11;100438.60;;;11.10
70050;BMP180;57391;51.306;22.680;2024-02-16T10:37:14;100441.60;;;11.20
70050;BMP180;57391;51.306;22.680;2024-02-16T10:39:17;100442.80;;;11.20
70050;BMP180;57391;51.306;22.680;2024-02-16T10:48:10;100420.20;;;11.30
70050;BMP180;57391;51.306;22.680;2024-02-16T10:50:12;100417.00;;;11.40
70050;BMP180;57391;51.306;22.680;2024-02-16T10:52:15;100422.60;;;11.40
70050;BMP180;57391;51.306;22.680;2024-02-16T10:54:23;100414.20;;;11.48
70050;BMP180;57391;51.306;22.680;2024-02-16T10:56:34;100409.60;;;11.42
70050;BMP180;57391;51.306;22.680;2024-02-16T10:58:37;100411.60;;;11.50
70050;BMP180;57391;51.306;22.680;2024-02-16T11:00:55;100409.00;;;11.40
70050;BMP180;57391;51.306;22.680;2024-02-16T11:03:01;100403.80;;;11.40
70050;BMP180;57391;51.306;22.680;2024-02-16T11:05:08;100402.00;;;11.40
70050;BMP180;57391;51.306;22.680;2024-02-16T11:07:18;100400.80;;;11.50
70050;BMP180;57391;51.306;22.680;2024-02-16T11:09:36;100401.00;;;11.50
70050;BMP180;57391;51.306;22.680;2024-02-16T11:11:38;100397.80;;;11.50
70050;BMP180;57391;51.306;22.680;2024-02-16T11:13:42;100398.00;;;11.50
70050;BMP180;57391;51.306;22.680;2024-02-16T11:15:44;100400.40;;;11.44
70050;BMP180;57391;51.306;22.680;2024-02-16T11:17:46;100399.60;;;11.40
70050;BMP180;57391;51.306;22.680;2024-02-16T11:19:49;100389.20;;;11.50
70050;BMP180;57391;51.306;22.680;2024-02-16T11:22:06;100386.80;;;11.50
70050;BMP180;57391;51.306;22.680;2024-02-16T11:24:13;100389.00;;;11.50
70050;BMP180;57391;51.306;22.680;2024-02-16T11:26:17;100383.60;;;11.50
70050;BMP180;57391;51.306;22.680;2024-02-16T11:28:19;100388.20;;;11.50
70050;BMP180;57391;51.306;22.680;2024-02-16T11:30:21;100378.40;;;11.50
70050;BMP180;57391;51.306;22.680;2024-02-16T11:32:23;100374.00;;;11.50
70050;BMP180;57391;51.306;22.680;2024-02-16T11:34:25;100375.20;;;11.50
70050;BMP180;57391;51.306;22.680;2024-02-16T11:36:27;100376.00;;;11.50
70050;BMP180;57391;51.306;22.680;2024-02-16T11:38:32;100372.60;;;11.50
70050;BMP180;57391;51.306;22.680;2024-02-16T11:40:34;100375.20;;;11.60